createdAt,value
2022-07-29T00:01:19.003Z,0.93
2022-07-29T00:02:53.516Z,1.02
2022-07-29T00:04:27.840Z,0.70
2022-07-29T00:06:00.787Z,0.70
2022-07-29T00:07:34.479Z,0.90
2022-07-29T00:09:08.576Z,0.70
2022-07-29T00:10:42.282Z,1.05
2022-07-29T00:12:15.617Z,1.15
2022-07-29T00:13:56.316Z,0.88
2022-07-29T00:15:29.857Z,1.02
2022-07-29T00:17:03.306Z,1.00
2022-07-29T00:18:36.790Z,0.65
2022-07-29T00:20:12.160Z,1.10
2022-07-29T00:21:45.836Z,0.70
2022-07-29T00:23:19.176Z,1.02
2022-07-29T00:24:52.645Z,1.02
2022-07-29T00:26:28.624Z,0.80
2022-07-29T00:28:02.250Z,1.17
2022-07-29T00:29:36.038Z,1.20
2022-07-29T00:31:09.968Z,0.77
2022-07-29T00:32:43.834Z,0.88
2022-07-29T00:34:31.365Z,0.90
2022-07-29T00:36:05.561Z,0.82
2022-07-29T00:37:37.945Z,0.80
2022-07-29T00:39:11.365Z,0.70
2022-07-29T00:40:46.249Z,1.17
2022-07-29T00:42:19.723Z,1.00
2022-07-29T00:43:53.153Z,0.88
2022-07-29T00:45:28.040Z,1.20
2022-07-29T00:47:01.603Z,1.00
2022-07-29T00:48:35.419Z,0.88
2022-07-29T00:50:11.272Z,0.85
2022-07-29T00:51:45.142Z,0.90
2022-07-29T00:53:20.987Z,0.90
2022-07-29T00:54:54.104Z,0.90
2022-07-29T00:56:27.536Z,1.05
2022-07-29T00:58:01.656Z,1.05
2022-07-29T00:59:35.835Z,0.77
2022-07-29T01:01:16.105Z,0.73
2022-07-29T01:02:51.380Z,0.98
2022-07-29T01:04:25.027Z,1.15
2022-07-29T01:05:59.177Z,1.10
2022-07-29T01:07:34.449Z,0.88
2022-07-29T01:09:11.930Z,0.90
2022-07-29T01:10:48.922Z,1.00
2022-07-29T01:12:28.094Z,1.00
2022-07-29T01:14:02.717Z,0.80
2022-07-29T01:15:49.286Z,0.88
2022-07-29T01:17:35.363Z,1.02
2022-07-29T01:19:42.470Z,0.63
2022-07-29T01:21:38.097Z,1.20
2022-07-29T01:23:44.221Z,0.80
2022-07-29T01:25:39.876Z,0.65
2022-07-29T01:27:40.447Z,0.80
2022-07-29T01:29:38.539Z,0.90
2022-07-29T01:31:24.986Z,0.65
2022-07-29T01:33:08.220Z,0.82
2022-07-29T01:34:47.386Z,0.90
2022-07-29T01:36:35.592Z,0.75
2022-07-29T01:38:15.506Z,0.95
2022-07-29T01:39:54.625Z,1.05
2022-07-29T01:41:35.170Z,0.90
2022-07-29T01:43:15.024Z,1.00
2022-07-29T01:44:58.093Z,0.70
2022-07-29T01:46:37.118Z,0.90
2022-07-29T01:48:20.080Z,0.90
2022-07-29T01:50:00.188Z,0.90
2022-07-29T01:51:41.220Z,0.93
2022-07-29T01:53:23.542Z,1.05
2022-07-29T01:55:04.068Z,0.80
2022-07-29T01:56:40.150Z,0.70
2022-07-29T01:58:16.926Z,0.80
2022-07-29T01:59:58.079Z,0.82
2022-07-29T02:01:34.706Z,0.88
2022-07-29T02:03:14.613Z,0.77
2022-07-29T02:04:53.944Z,0.80
2022-07-29T02:06:28.973Z,1.30
2022-07-29T02:08:05.705Z,1.10
2022-07-29T02:09:42.961Z,0.73
2022-07-29T02:11:16.824Z,0.85
2022-07-29T02:12:52.248Z,0.90
2022-07-29T02:14:30.117Z,0.80
2022-07-29T02:16:09.008Z,0.90
2022-07-29T02:17:47.666Z,0.70
2022-07-29T02:19:25.557Z,0.82
2022-07-29T02:21:03.066Z,0.90
2022-07-29T02:22:40.921Z,0.90
2022-07-29T02:24:16.759Z,0.90
2022-07-29T02:25:53.403Z,0.80
2022-07-29T02:27:30.573Z,0.82
2022-07-29T02:29:04.755Z,0.88
2022-07-29T02:30:43.024Z,1.13
2022-07-29T02:32:20.296Z,0.93
2022-07-29T02:33:55.707Z,1.02
2022-07-29T02:35:34.820Z,0.80
2022-07-29T02:37:12.502Z,0.90
2022-07-29T02:38:53.125Z,0.88
2022-07-29T02:40:26.823Z,1.00
2022-07-29T02:42:07.345Z,0.70
2022-07-29T02:43:42.597Z,1.00
2022-07-29T02:45:15.982Z,0.73
2022-07-29T02:46:55.512Z,0.93
2022-07-29T02:48:37.451Z,1.00
2022-07-29T02:50:17.269Z,1.23
2022-07-29T02:51:57.727Z,1.10
2022-07-29T02:53:36.364Z,0.98
2022-07-29T02:55:21.505Z,1.00
2022-07-29T02:57:00.783Z,1.15
2022-07-29T02:58:39.338Z,1.00
2022-07-29T03:00:33.520Z,0.80
2022-07-29T03:02:09.222Z,0.90
2022-07-29T03:03:48.358Z,1.05
2022-07-29T03:05:23.397Z,0.95
2022-07-29T03:07:01.347Z,1.10
2022-07-29T03:08:36.872Z,0.70
2022-07-29T03:10:10.871Z,0.90
2022-07-29T03:11:49.689Z,1.13
2022-07-29T03:13:25.630Z,0.82
2022-07-29T03:15:01.162Z,0.98
2022-07-29T03:16:41.149Z,0.93
2022-07-29T03:18:16.415Z,0.68
2022-07-29T03:19:51.926Z,0.80
2022-07-29T03:21:24.795Z,0.80
2022-07-29T03:22:58.372Z,0.85
2022-07-29T03:24:34.934Z,1.00
2022-07-29T03:26:08.623Z,0.93
2022-07-29T03:27:42.754Z,0.85
2022-07-29T03:29:16.142Z,1.02
2022-07-29T03:30:53.516Z,0.95
2022-07-29T03:32:28.534Z,1.00
2022-07-29T03:34:01.948Z,0.70
2022-07-29T03:35:37.288Z,1.40
2022-07-29T03:37:10.693Z,0.95
2022-07-29T03:38:46.862Z,0.93
2022-07-29T03:40:27.378Z,1.02
2022-07-29T03:42:03.828Z,0.90
2022-07-29T03:43:49.398Z,0.85
2022-07-29T03:45:26.067Z,0.85
2022-07-29T03:47:03.786Z,1.27
2022-07-29T03:48:44.234Z,0.80
2022-07-29T03:50:20.193Z,0.88
2022-07-29T03:51:55.290Z,1.13
2022-07-29T03:53:28.976Z,0.90
2022-07-29T03:55:03.022Z,1.02
2022-07-29T03:56:42.421Z,1.00
2022-07-29T03:58:17.937Z,0.98
2022-07-29T03:59:54.165Z,1.00
2022-07-29T04:01:30.587Z,0.90
2022-07-29T04:03:10.642Z,0.73
2022-07-29T04:04:45.223Z,1.02
2022-07-29T04:06:17.573Z,0.70
2022-07-29T04:07:52.666Z,1.10
2022-07-29T04:09:25.117Z,1.15
2022-07-29T04:10:58.775Z,0.93
2022-07-29T04:12:32.128Z,0.90
2022-07-29T04:14:05.872Z,0.80
2022-07-29T04:15:39.371Z,1.02
2022-07-29T04:17:11.775Z,0.93
2022-07-29T04:18:45.137Z,0.85
2022-07-29T04:20:18.730Z,1.00
2022-07-29T04:21:52.230Z,0.93
2022-07-29T04:23:27.269Z,0.82
2022-07-29T04:25:03.998Z,0.85
2022-07-29T04:26:37.870Z,1.38
2022-07-29T04:28:12.233Z,0.73
2022-07-29T04:29:57.154Z,0.90
2022-07-29T04:31:30.039Z,0.90
2022-07-29T04:33:06.407Z,0.90
2022-07-29T04:34:40.090Z,0.80
2022-07-29T04:36:28.515Z,1.00
2022-07-29T04:38:03.782Z,0.80
2022-07-29T04:39:38.711Z,1.10
2022-07-29T04:41:12.077Z,1.08
2022-07-29T04:42:47.921Z,1.00
2022-07-29T04:44:22.906Z,1.02
2022-07-29T04:46:02.322Z,0.90
2022-07-29T04:47:34.759Z,1.17
2022-07-29T04:49:08.270Z,1.25
2022-07-29T04:50:43.028Z,1.00
2022-07-29T04:52:16.559Z,1.00
2022-07-29T04:53:49.958Z,1.17
2022-07-29T04:55:25.818Z,1.02
2022-07-29T04:56:59.257Z,1.30
2022-07-29T04:58:32.660Z,1.00
2022-07-29T05:00:09.018Z,1.20
2022-07-29T05:01:42.665Z,0.95
2022-07-29T05:03:16.492Z,1.40
2022-07-29T05:04:49.902Z,1.30
2022-07-29T05:06:23.306Z,1.05
2022-07-29T05:07:57.301Z,0.93
2022-07-29T05:09:31.218Z,1.20
2022-07-29T05:11:12.160Z,1.17
2022-07-29T05:12:46.338Z,1.02
2022-07-29T05:14:20.302Z,1.20
2022-07-29T05:15:54.312Z,1.27
2022-07-29T05:17:28.157Z,1.25
2022-07-29T05:19:01.623Z,1.30
2022-07-29T05:20:35.590Z,0.93
2022-07-29T05:22:09.591Z,1.05
2022-07-29T05:23:43.003Z,1.23
2022-07-29T05:25:16.616Z,1.08
2022-07-29T05:26:51.388Z,0.90
2022-07-29T05:28:25.843Z,1.20
2022-07-29T05:29:59.257Z,1.25
2022-07-29T05:31:31.736Z,1.00
2022-07-29T05:33:05.627Z,1.25
2022-07-29T05:34:51.252Z,1.40
2022-07-29T05:36:25.266Z,1.20
2022-07-29T05:37:58.830Z,1.00
2022-07-29T05:39:47.076Z,1.42
2022-07-29T05:41:22.699Z,0.90
2022-07-29T05:42:58.357Z,1.13
2022-07-29T05:44:31.875Z,1.35
2022-07-29T05:46:05.403Z,1.15
2022-07-29T05:47:38.729Z,1.00
2022-07-29T05:49:11.235Z,1.15
2022-07-29T05:51:00.950Z,1.50
2022-07-29T05:52:34.494Z,1.15
2022-07-29T05:54:07.914Z,1.13
2022-07-29T05:55:41.325Z,1.27
2022-07-29T05:57:18.739Z,1.33
2022-07-29T05:58:54.107Z,1.50
2022-07-29T06:00:27.669Z,1.38
2022-07-29T06:02:02.885Z,1.33
2022-07-29T06:03:38.633Z,0.98
2022-07-29T06:05:16.503Z,1.30
2022-07-29T06:06:50.645Z,1.10
2022-07-29T06:08:24.438Z,1.30
2022-07-29T06:09:58.073Z,2.03
2022-07-29T06:11:32.017Z,1.60
2022-07-29T06:13:05.548Z,1.40
2022-07-29T06:14:41.163Z,1.10
2022-07-29T06:16:15.848Z,1.70
2022-07-29T06:18:03.651Z,1.38
2022-07-29T06:19:37.815Z,1.63
2022-07-29T06:21:12.251Z,1.60
2022-07-29T06:22:45.658Z,1.42
2022-07-29T06:24:20.058Z,1.10
2022-07-29T06:25:53.809Z,1.40
2022-07-29T06:27:27.313Z,1.20
2022-07-29T06:29:00.941Z,1.58
2022-07-29T06:30:35.856Z,1.40
2022-07-29T06:32:10.112Z,0.98
2022-07-29T06:33:43.453Z,1.13
2022-07-29T06:35:41.769Z,1.40
2022-07-29T06:37:15.667Z,1.30
2022-07-29T06:38:51.179Z,1.45
2022-07-29T06:40:43.017Z,1.50
2022-07-29T06:42:16.794Z,1.30
2022-07-29T06:43:54.615Z,1.10
2022-07-29T06:45:29.310Z,1.33
2022-07-29T06:47:04.657Z,1.30
2022-07-29T06:48:38.093Z,1.05
2022-07-29T06:50:13.730Z,1.50
2022-07-29T06:51:47.494Z,1.30
2022-07-29T06:53:20.062Z,1.60
2022-07-29T06:54:53.533Z,1.52
2022-07-29T06:56:27.398Z,1.30
2022-07-29T06:58:00.758Z,1.33
2022-07-29T06:59:35.951Z,1.27
2022-07-29T07:01:10.222Z,1.67
2022-07-29T07:02:48.841Z,1.15
2022-07-29T07:04:22.483Z,1.10
2022-07-29T07:05:56.979Z,1.15
2022-07-29T07:07:30.842Z,1.15
2022-07-29T07:09:04.955Z,1.10
2022-07-29T07:10:38.934Z,1.42
2022-07-29T07:12:12.714Z,1.45
2022-07-29T07:13:46.785Z,1.35
2022-07-29T07:15:22.799Z,1.33
2022-07-29T07:17:12.214Z,1.23
2022-07-29T07:18:47.065Z,1.52
2022-07-29T07:20:21.207Z,1.40
2022-07-29T07:21:55.371Z,1.52
2022-07-29T07:23:29.158Z,1.20
2022-07-29T07:25:02.687Z,1.30
2022-07-29T07:26:36.182Z,1.02
2022-07-29T07:28:09.621Z,1.13
2022-07-29T07:29:44.148Z,1.30
2022-07-29T07:31:18.315Z,1.20
2022-07-29T07:32:51.824Z,1.38
2022-07-29T07:34:29.549Z,1.58
2022-07-29T07:36:03.258Z,1.00
2022-07-29T07:37:38.179Z,1.17
2022-07-29T07:39:11.759Z,0.85
2022-07-29T07:40:47.295Z,1.10
2022-07-29T07:42:21.196Z,1.15
2022-07-29T07:43:54.678Z,1.58
2022-07-29T07:45:28.879Z,1.15
2022-07-29T07:47:03.974Z,1.10
2022-07-29T07:48:42.219Z,1.38
2022-07-29T07:50:19.164Z,1.00
2022-07-29T07:51:53.677Z,0.98
2022-07-29T07:53:27.089Z,1.50
2022-07-29T07:55:01.014Z,1.23
2022-07-29T07:56:35.453Z,1.13
2022-07-29T07:58:10.434Z,1.10
2022-07-29T07:59:44.153Z,1.00
2022-07-29T08:01:19.969Z,0.80
2022-07-29T08:02:53.836Z,1.00
2022-07-29T08:04:28.970Z,1.10
2022-07-29T08:06:04.724Z,0.95
2022-07-29T08:07:38.689Z,1.13
2022-07-29T08:09:28.321Z,1.15
2022-07-29T08:11:08.996Z,1.33
2022-07-29T08:12:43.377Z,0.80
2022-07-29T08:14:17.202Z,1.05
2022-07-29T08:15:58.497Z,1.40
2022-07-29T08:17:32.334Z,1.20
2022-07-29T08:19:09.242Z,0.93
2022-07-29T08:20:42.749Z,1.40
2022-07-29T08:22:17.973Z,1.00
2022-07-29T08:23:59.886Z,1.10
2022-07-29T08:25:38.658Z,1.00
2022-07-29T08:27:40.735Z,1.10
2022-07-29T08:29:07.697Z,1.20
2022-07-29T08:30:41.129Z,0.95
2022-07-29T08:32:22.295Z,1.10
2022-07-29T08:34:09.438Z,1.08
2022-07-29T08:35:43.401Z,1.38
2022-07-29T08:37:18.116Z,1.55
2022-07-29T08:38:51.849Z,1.42
2022-07-29T08:40:30.503Z,1.35
2022-07-29T08:42:07.562Z,0.80
2022-07-29T08:43:42.719Z,0.90
2022-07-29T08:45:16.030Z,0.90
2022-07-29T08:46:50.406Z,0.98
2022-07-29T08:48:25.987Z,0.88
2022-07-29T08:49:59.403Z,1.10
2022-07-29T08:51:36.953Z,1.27
2022-07-29T08:53:27.686Z,1.10
2022-07-29T08:55:01.897Z,1.00
2022-07-29T08:56:36.598Z,1.10
2022-07-29T08:58:11.413Z,1.25
2022-07-29T08:59:51.449Z,1.13
2022-07-29T09:01:36.581Z,0.80
2022-07-29T09:03:21.320Z,0.90
2022-07-29T09:04:54.964Z,1.10
2022-07-29T09:06:34.149Z,0.95
2022-07-29T09:08:07.881Z,1.10
2022-07-29T09:09:43.614Z,1.08
2022-07-29T09:11:17.174Z,0.80
2022-07-29T09:12:50.833Z,1.33
2022-07-29T09:14:24.140Z,1.05
2022-07-29T09:15:57.967Z,0.82
2022-07-29T09:17:46.102Z,1.10
2022-07-29T09:19:25.306Z,1.38
2022-07-29T09:21:16.688Z,1.13
2022-07-29T09:22:53.716Z,1.38
2022-07-29T09:24:40.656Z,1.30
2022-07-29T09:26:15.345Z,1.02
2022-07-29T09:27:52.817Z,1.17
2022-07-29T09:29:26.817Z,1.23
2022-07-29T09:31:01.199Z,1.20
2022-07-29T09:32:35.552Z,0.93
2022-07-29T09:34:10.663Z,1.20
2022-07-29T09:35:56.952Z,1.30
2022-07-29T09:37:31.403Z,1.02
2022-07-29T09:39:05.571Z,1.20
2022-07-29T09:40:39.301Z,1.30
2022-07-29T09:42:16.731Z,1.33
2022-07-29T09:43:57.355Z,1.10
2022-07-29T09:45:33.716Z,1.08
2022-07-29T09:47:07.891Z,0.90
2022-07-29T09:48:41.991Z,1.10
2022-07-29T09:50:16.364Z,1.40
2022-07-29T09:52:01.697Z,1.20
2022-07-29T09:53:38.602Z,0.98
2022-07-29T09:55:18.396Z,1.08
2022-07-29T09:56:54.644Z,1.52
2022-07-29T09:58:30.200Z,1.20
2022-07-29T10:00:09.359Z,1.00
2022-07-29T10:01:46.488Z,1.50
2022-07-29T10:03:22.511Z,1.35
2022-07-29T10:04:56.185Z,1.40
2022-07-29T10:06:29.880Z,1.25
2022-07-29T10:08:03.426Z,1.30
2022-07-29T10:09:37.985Z,1.05
2022-07-29T10:11:14.835Z,1.05
2022-07-29T10:12:54.849Z,1.10
2022-07-29T10:14:30.546Z,1.20
2022-07-29T10:16:05.751Z,1.38
2022-07-29T10:17:40.523Z,1.17
2022-07-29T10:19:16.435Z,1.23
2022-07-29T10:20:51.275Z,1.30
2022-07-29T10:22:50.745Z,0.88
2022-07-29T10:24:18.949Z,1.20
2022-07-29T10:25:52.710Z,1.27
2022-07-29T10:27:26.248Z,1.13
2022-07-29T10:29:00.512Z,1.17
2022-07-29T10:30:35.872Z,1.27
2022-07-29T10:32:24.879Z,1.10
2022-07-29T10:34:15.257Z,1.35
2022-07-29T10:36:20.397Z,1.15
2022-07-29T10:38:40.792Z,1.50
2022-07-29T10:40:52.810Z,1.10
2022-07-29T10:42:33.964Z,1.33
2022-07-29T10:44:19.449Z,1.20
2022-07-29T10:46:02.190Z,1.00
2022-07-29T10:47:35.769Z,1.55
2022-07-29T10:49:15.459Z,1.35
2022-07-29T10:51:00.949Z,1.15
2022-07-29T10:52:58.627Z,1.48
2022-07-29T10:54:51.446Z,1.35
2022-07-29T10:56:29.986Z,1.40
2022-07-29T10:58:18.829Z,1.27
2022-07-29T11:00:30.100Z,1.20
2022-07-29T11:02:50.258Z,1.20
2022-07-29T11:05:04.327Z,0.93
2022-07-29T11:07:11.457Z,1.40
2022-07-29T11:08:45.510Z,1.20
2022-07-29T11:10:31.280Z,1.27
2022-07-29T11:12:05.657Z,0.88
2022-07-29T11:13:53.260Z,1.00
2022-07-29T11:15:28.580Z,1.05
2022-07-29T11:17:08.789Z,1.10
2022-07-29T11:19:29.911Z,1.27
2022-07-29T11:21:04.449Z,1.13
2022-07-29T11:22:42.988Z,1.10
2022-07-29T11:24:29.041Z,1.38
2022-07-29T11:26:21.089Z,1.13
2022-07-29T11:28:18.498Z,1.30
2022-07-29T11:30:03.301Z,1.65
2022-07-29T11:31:43.710Z,1.55
2022-07-29T11:33:54.660Z,1.50
2022-07-29T11:35:38.567Z,1.60
2022-07-29T11:37:28.207Z,1.35
2022-07-29T11:39:36.429Z,1.10
2022-07-29T11:41:30.051Z,1.27
2022-07-29T11:43:07.426Z,1.45
2022-07-29T11:44:58.207Z,1.77
2022-07-29T11:46:50.610Z,1.75
2022-07-29T11:48:28.742Z,1.60
2022-07-29T11:50:10.158Z,1.35
2022-07-29T11:51:48.546Z,1.85
2022-07-29T11:53:23.722Z,1.48
2022-07-29T11:55:09.910Z,1.58
2022-07-29T11:56:47.988Z,1.67
2022-07-29T11:58:25.225Z,1.48
2022-07-29T12:00:09.488Z,1.33
2022-07-29T12:02:12.137Z,1.70
2022-07-29T12:03:48.756Z,1.33
2022-07-29T12:05:36.433Z,1.30
2022-07-29T12:07:11.310Z,1.90
2022-07-29T12:08:49.250Z,1.80
2022-07-29T12:10:30.377Z,1.60
2022-07-29T12:12:05.565Z,1.50
2022-07-29T12:13:41.875Z,1.70
2022-07-29T12:15:21.492Z,1.38
2022-07-29T12:16:56.030Z,1.92
2022-07-29T12:18:29.784Z,1.40
2022-07-29T12:20:05.373Z,2.28
2022-07-29T12:21:54.009Z,1.67
2022-07-29T12:23:35.019Z,2.08
2022-07-29T12:27:06.907Z,1.67
2022-07-29T12:28:40.816Z,1.73
2022-07-29T12:30:17.874Z,1.92
2022-07-29T12:31:57.789Z,2.15
2022-07-29T12:33:31.873Z,1.48
2022-07-29T12:35:07.415Z,1.95
2022-07-29T12:36:41.358Z,1.92
2022-07-29T12:38:17.625Z,2.13
2022-07-29T12:39:52.447Z,1.38
2022-07-29T12:41:26.057Z,1.73
2022-07-29T12:43:14.761Z,1.70
2022-07-29T12:44:51.272Z,1.70
2022-07-29T12:46:25.422Z,1.30
2022-07-29T12:47:59.549Z,1.80
2022-07-29T12:49:38.292Z,1.33
2022-07-29T12:51:15.400Z,1.70
2022-07-29T12:52:49.650Z,1.27
2022-07-29T12:54:24.477Z,1.63
2022-07-29T12:56:07.928Z,2.08
2022-07-29T12:57:51.615Z,1.55
2022-07-29T12:59:25.254Z,1.50
2022-07-29T13:01:17.396Z,1.63
2022-07-29T13:02:58.291Z,1.50
2022-07-29T13:04:37.430Z,1.88
2022-07-29T13:06:39.477Z,1.58
2022-07-29T13:08:22.039Z,1.45
2022-07-29T13:10:17.133Z,1.77
2022-07-29T13:11:55.090Z,2.22
2022-07-29T13:13:28.886Z,2.03
2022-07-29T13:15:02.478Z,2.05
2022-07-29T13:16:36.487Z,1.80
2022-07-29T13:18:31.814Z,1.98
2022-07-29T13:20:13.437Z,2.10
2022-07-29T13:21:47.864Z,1.90
2022-07-29T13:23:21.686Z,1.67
2022-07-29T13:24:59.055Z,1.75
2022-07-29T13:26:32.457Z,1.90
2022-07-29T13:28:06.785Z,2.03
2022-07-29T13:29:41.061Z,1.73
2022-07-29T13:31:15.308Z,2.10
2022-07-29T13:32:48.861Z,1.92
2022-07-29T13:34:23.199Z,1.75
2022-07-29T13:35:56.558Z,1.50
2022-07-29T13:37:31.440Z,1.70
2022-07-29T13:39:05.636Z,2.00
2022-07-29T13:40:40.479Z,1.48
2022-07-29T13:42:14.141Z,1.50
2022-07-29T13:43:47.689Z,1.70
2022-07-29T13:45:23.662Z,1.65
2022-07-29T13:46:59.760Z,1.77
2022-07-29T13:48:33.329Z,1.90
2022-07-29T13:50:11.275Z,2.03
2022-07-29T13:51:45.021Z,1.83
2022-07-29T13:53:18.462Z,2.05
2022-07-29T13:54:51.908Z,1.90
2022-07-29T13:56:27.162Z,1.92
2022-07-29T13:58:01.540Z,1.90
2022-07-29T13:59:37.927Z,1.90
2022-07-29T14:01:11.923Z,2.05
2022-07-29T14:02:45.627Z,1.88
2022-07-29T14:04:19.584Z,1.90
2022-07-29T14:05:54.741Z,1.92
2022-07-29T14:07:28.238Z,1.50
2022-07-29T14:09:01.705Z,1.80
2022-07-29T14:10:35.318Z,1.73
2022-07-29T14:12:11.611Z,1.58
2022-07-29T14:13:45.006Z,1.90
2022-07-29T14:15:19.330Z,1.40
2022-07-29T14:16:52.759Z,1.92
2022-07-29T14:18:26.489Z,1.85
2022-07-29T14:19:59.916Z,1.58
2022-07-29T14:21:35.540Z,1.52
2022-07-29T14:23:10.251Z,1.67
2022-07-29T14:24:46.678Z,1.90
2022-07-29T14:26:21.748Z,1.77
2022-07-29T14:27:59.263Z,1.33
2022-07-29T14:29:37.750Z,1.60
2022-07-29T14:31:12.227Z,1.60
2022-07-29T14:32:45.870Z,1.70
2022-07-29T14:34:19.626Z,1.60
2022-07-29T14:35:53.639Z,1.65
2022-07-29T14:37:26.045Z,1.50
2022-07-29T14:38:59.598Z,1.35
2022-07-29T14:40:33.210Z,1.35
2022-07-29T14:42:07.156Z,1.83
2022-07-29T14:43:41.915Z,1.50
2022-07-29T14:45:16.055Z,1.52
2022-07-29T14:46:49.520Z,1.63
2022-07-29T14:48:23.156Z,1.63
2022-07-29T14:49:56.559Z,1.33
2022-07-29T14:51:32.401Z,1.20
2022-07-29T14:53:06.370Z,1.58
2022-07-29T14:54:39.750Z,1.60
2022-07-29T14:56:35.341Z,1.63
2022-07-29T14:58:12.101Z,1.48
2022-07-29T14:59:49.505Z,1.42
2022-07-29T15:01:22.978Z,1.60
2022-07-29T15:03:02.403Z,1.77
2022-07-29T15:04:36.545Z,1.45
2022-07-29T15:06:10.209Z,1.60
2022-07-29T15:07:44.097Z,1.50
2022-07-29T15:09:17.659Z,1.60
2022-07-29T15:10:51.205Z,1.85
2022-07-29T15:12:24.858Z,1.60
2022-07-29T15:13:58.213Z,1.58
2022-07-29T15:15:33.181Z,1.70
2022-07-29T15:17:06.599Z,1.02
2022-07-29T15:18:41.181Z,1.25
2022-07-29T15:20:15.298Z,1.85
2022-07-29T15:21:49.272Z,1.38
2022-07-29T15:23:22.742Z,1.70
2022-07-29T15:24:56.790Z,1.27
2022-07-29T15:26:30.418Z,1.33
2022-07-29T15:28:07.790Z,1.40
2022-07-29T15:29:41.234Z,1.65
2022-07-29T15:31:16.888Z,1.25
2022-07-29T15:32:50.974Z,1.60
2022-07-29T15:34:29.544Z,1.30
2022-07-29T15:36:05.547Z,1.60
2022-07-29T15:37:49.293Z,1.30
2022-07-29T15:39:23.917Z,1.50
2022-07-29T15:40:57.357Z,1.50
2022-07-29T15:42:30.977Z,1.40
2022-07-29T15:44:04.789Z,1.48
2022-07-29T15:45:40.510Z,1.42
2022-07-29T15:47:14.662Z,1.38
2022-07-29T15:48:50.223Z,1.65
2022-07-29T15:50:24.609Z,1.40
2022-07-29T15:51:59.942Z,1.33
2022-07-29T15:53:33.876Z,1.60
2022-07-29T15:55:10.197Z,1.83
2022-07-29T15:56:43.965Z,1.48
2022-07-29T15:58:17.590Z,1.85
2022-07-29T15:59:51.937Z,1.27
2022-07-29T16:01:25.901Z,1.40
2022-07-29T16:03:00.965Z,1.30
2022-07-29T16:04:34.804Z,1.30
2022-07-29T16:06:08.349Z,1.40
2022-07-29T16:07:42.226Z,1.52
2022-07-29T16:09:17.562Z,1.48
2022-07-29T16:10:51.059Z,1.33
2022-07-29T16:12:24.543Z,1.90
2022-07-29T16:13:58.290Z,1.30
2022-07-29T16:15:32.390Z,1.60
2022-07-29T16:17:06.169Z,1.60
2022-07-29T16:18:40.863Z,1.23
2022-07-29T16:20:14.712Z,1.70
2022-07-29T16:21:48.170Z,1.15
2022-07-29T16:23:21.562Z,1.50
2022-07-29T16:24:54.933Z,1.30
2022-07-29T16:26:29.119Z,1.15
2022-07-29T16:28:03.205Z,1.23
2022-07-29T16:29:37.691Z,1.55
2022-07-29T16:31:11.263Z,1.58
2022-07-29T16:32:45.361Z,1.33
2022-07-29T16:34:20.544Z,1.70
2022-07-29T16:35:55.096Z,1.27
2022-07-29T16:37:33.995Z,1.42
2022-07-29T16:39:08.208Z,1.10
2022-07-29T16:40:42.337Z,1.23
2022-07-29T16:42:30.955Z,1.52
2022-07-29T16:44:09.353Z,1.10
2022-07-29T16:45:46.370Z,1.17
2022-07-29T16:47:20.456Z,1.45
2022-07-29T16:48:55.668Z,1.25
2022-07-29T16:50:31.435Z,1.50
2022-07-29T16:52:05.184Z,1.30
2022-07-29T16:53:38.590Z,1.38
2022-07-29T16:55:11.964Z,1.70
2022-07-29T16:56:45.898Z,1.40
2022-07-29T16:58:19.465Z,1.42
2022-07-29T16:59:52.948Z,1.50
2022-07-29T17:01:26.471Z,1.40
2022-07-29T17:03:00.341Z,1.60
2022-07-29T17:04:35.089Z,1.15
2022-07-29T17:06:09.889Z,1.20
2022-07-29T17:07:44.101Z,1.27
2022-07-29T17:09:17.715Z,1.40
2022-07-29T17:10:52.173Z,1.67
2022-07-29T17:12:26.003Z,1.23
2022-07-29T17:14:00.260Z,1.10
2022-07-29T17:15:36.301Z,1.60
2022-07-29T17:17:13.846Z,1.27
2022-07-29T17:18:50.215Z,1.70
2022-07-29T17:20:24.029Z,1.45
2022-07-29T17:22:08.419Z,1.40
2022-07-29T17:23:45.217Z,1.30
2022-07-29T17:25:20.664Z,1.30
2022-07-29T17:26:54.693Z,1.13
2022-07-29T17:28:28.363Z,1.15
2022-07-29T17:30:02.111Z,1.42
2022-07-29T17:31:35.716Z,1.55
2022-07-29T17:33:09.317Z,1.52
2022-07-29T17:34:44.173Z,1.10
2022-07-29T17:36:26.723Z,1.25
2022-07-29T17:38:01.723Z,1.50
2022-07-29T17:39:36.046Z,1.15
2022-07-29T17:41:09.820Z,1.30
2022-07-29T17:42:43.240Z,1.88
2022-07-29T17:44:17.161Z,1.10
2022-07-29T17:46:00.497Z,1.23
2022-07-29T17:47:34.024Z,1.50
2022-07-29T17:49:07.920Z,1.40
2022-07-29T17:50:41.548Z,1.38
2022-07-29T17:52:15.881Z,1.20
2022-07-29T17:53:51.168Z,1.27
2022-07-29T17:55:25.082Z,1.23
2022-07-29T17:56:58.808Z,1.23
2022-07-29T17:58:33.213Z,1.40
2022-07-29T18:00:08.849Z,1.38
2022-07-29T18:01:42.513Z,1.70
2022-07-29T18:03:16.867Z,1.58
2022-07-29T18:04:50.816Z,1.33
2022-07-29T18:06:24.169Z,1.52
2022-07-29T18:07:57.846Z,1.33
2022-07-29T18:09:32.490Z,1.17
2022-07-29T18:11:06.277Z,1.63
2022-07-29T18:12:39.624Z,1.27
2022-07-29T18:14:13.006Z,1.67
2022-07-29T18:15:47.762Z,1.10
2022-07-29T18:17:21.153Z,1.40
2022-07-29T18:19:08.012Z,1.17
2022-07-29T18:20:42.720Z,1.50
2022-07-29T18:22:16.697Z,1.50
2022-07-29T18:23:52.039Z,1.05
2022-07-29T18:25:28.498Z,1.70
2022-07-29T18:27:02.572Z,1.25
2022-07-29T18:28:36.337Z,1.48
2022-07-29T18:30:10.703Z,1.27
2022-07-29T18:31:44.337Z,1.52
2022-07-29T18:33:21.845Z,1.77
2022-07-29T18:34:55.887Z,1.30
2022-07-29T18:36:29.712Z,1.13
2022-07-29T18:38:03.562Z,1.08
2022-07-29T18:39:37.101Z,1.38
2022-07-29T18:41:11.954Z,1.48
2022-07-29T18:42:45.608Z,1.30
2022-07-29T18:44:25.574Z,1.60
2022-07-29T18:45:59.625Z,1.52
2022-07-29T18:47:33.243Z,1.25
2022-07-29T18:49:07.155Z,1.40
2022-07-29T18:50:41.436Z,1.15
2022-07-29T18:52:14.879Z,1.10
2022-07-29T18:53:48.266Z,1.50
2022-07-29T18:55:21.773Z,1.30
2022-07-29T18:56:57.094Z,1.23
2022-07-29T18:58:33.034Z,1.27
2022-07-29T19:00:08.714Z,1.50
2022-07-29T19:01:42.504Z,1.80
2022-07-29T19:03:16.073Z,1.52
2022-07-29T19:04:50.980Z,1.38
2022-07-29T19:06:25.924Z,1.83
2022-07-29T19:07:59.461Z,1.40
2022-07-29T19:09:34.376Z,1.10
2022-07-29T19:11:08.001Z,1.25
2022-07-29T19:12:42.725Z,1.05
2022-07-29T19:14:16.129Z,1.33
2022-07-29T19:15:49.711Z,1.23
2022-07-29T19:17:23.631Z,1.40
2022-07-29T19:18:57.111Z,1.48
2022-07-29T19:20:30.994Z,1.65
2022-07-29T19:22:04.906Z,1.40
2022-07-29T19:24:00.016Z,1.38
2022-07-29T19:25:32.122Z,1.40
2022-07-29T19:27:09.319Z,1.42
2022-07-29T19:28:44.203Z,1.58
2022-07-29T19:30:22.861Z,1.42
2022-07-29T19:31:56.985Z,1.48
2022-07-29T19:33:30.610Z,1.35
2022-07-29T19:35:25.944Z,1.13
2022-07-29T19:36:59.779Z,1.40
2022-07-29T19:38:33.972Z,1.42
2022-07-29T19:40:10.652Z,1.13
2022-07-29T19:41:44.459Z,1.38
2022-07-29T19:43:50.964Z,1.40
2022-07-29T19:45:13.521Z,1.77
2022-07-29T19:46:46.897Z,1.30
2022-07-29T19:48:20.264Z,1.60
2022-07-29T19:49:53.729Z,1.75
2022-07-29T19:51:27.260Z,1.25
2022-07-29T19:53:01.816Z,1.40
2022-07-29T19:54:35.273Z,1.50
2022-07-29T19:56:09.131Z,1.70
2022-07-29T19:57:43.052Z,1.90
2022-07-29T19:59:16.828Z,1.52
2022-07-29T20:00:51.630Z,1.42
2022-07-29T20:02:25.105Z,1.60
2022-07-29T20:03:58.872Z,1.63
2022-07-29T20:05:32.542Z,1.48
2022-07-29T20:07:06.715Z,1.70
2022-07-29T20:08:40.795Z,1.80
2022-07-29T20:10:14.799Z,1.80
2022-07-29T20:11:48.944Z,1.75
2022-07-29T20:13:22.257Z,1.67
2022-07-29T20:14:55.888Z,1.35
2022-07-29T20:16:30.573Z,1.38
2022-07-29T20:18:04.512Z,1.65
2022-07-29T20:19:38.249Z,1.38
2022-07-29T20:21:11.896Z,1.65
2022-07-29T20:22:45.285Z,1.50
2022-07-29T20:24:18.710Z,1.33
2022-07-29T20:25:52.266Z,1.30
2022-07-29T20:27:27.943Z,1.50
2022-07-29T20:29:01.582Z,1.50
2022-07-29T20:30:35.306Z,1.27
2022-07-29T20:32:13.425Z,1.65
2022-07-29T20:33:47.102Z,1.60
2022-07-29T20:35:22.474Z,1.20
2022-07-29T20:36:56.388Z,1.58
2022-07-29T20:38:30.635Z,1.50
2022-07-29T20:40:05.664Z,1.67
2022-07-29T20:41:46.101Z,1.63
2022-07-29T20:43:19.631Z,1.65
2022-07-29T20:44:53.854Z,1.60
2022-07-29T20:46:27.456Z,1.70
2022-07-29T20:48:02.682Z,1.42
2022-07-29T20:49:36.966Z,1.42
2022-07-29T20:51:10.514Z,1.52
2022-07-29T20:52:44.394Z,1.30
2022-07-29T20:54:16.993Z,1.20
2022-07-29T20:55:51.273Z,1.70
2022-07-29T20:57:39.008Z,1.63
2022-07-29T20:59:13.354Z,1.30
2022-07-29T21:00:47.116Z,1.42
2022-07-29T21:02:20.687Z,1.30
2022-07-29T21:03:55.660Z,1.58
2022-07-29T21:05:29.881Z,1.42
2022-07-29T21:07:03.670Z,1.40
2022-07-29T21:08:37.149Z,1.50
2022-07-29T21:10:11.037Z,1.55
2022-07-29T21:11:45.280Z,1.50
2022-07-29T21:13:20.393Z,1.80
2022-07-29T21:14:53.717Z,1.42
2022-07-29T21:16:28.700Z,1.70
2022-07-29T21:18:05.712Z,1.67
2022-07-29T21:19:40.419Z,1.45
2022-07-29T21:21:15.874Z,1.15
2022-07-29T21:22:49.221Z,1.90
2022-07-29T21:24:22.654Z,1.25
2022-07-29T21:25:56.891Z,1.30
2022-07-29T21:27:47.666Z,1.38
2022-07-29T21:29:20.135Z,1.80
2022-07-29T21:30:54.169Z,1.90
2022-07-29T21:32:30.259Z,1.67
2022-07-29T21:34:03.847Z,1.90